Time;durP1;ratioP1;P1;durP2;ratioP2;P2;SDS_P1;SDS_P2;PMS_P1;PMS_P2;Temp;Humidity;BMP_temperature;BMP_pressure;BME280_temperature;BME280_humidity;BME280_pressure;Samples;Min_cycle;Max_cycle;Signal;HPM_P1;HPM_P2
2022/02/04 00:09:20;;;;;;;5.50;3.33;;;;;;;7.06;96.37;100407.25;20776669;28;20116;-69
2022/02/04 00:30:07;;;;;;;6.00;3.17;;;;;;;6.78;98.02;100403.81;20770540;28;20437;-70
2022/02/04 00:40:16;;;;;;;6.68;3.38;;;;;;;6.74;98.97;100399.47;20773565;28;20085;-69
2022/02/04 00:50:33;;;;;;;6.45;3.33;;;;;;;6.68;99.31;100406.41;20768750;28;20065;-69
2022/02/04 01:31:35;;;;;;;7.32;3.42;;;;;;;6.61;100.00;100415.09;20742423;28;20077;-69
2022/02/04 01:41:37;;;;;;;5.72;3.10;;;;;;;6.58;100.00;100414.22;20772458;28;20508;-69
2022/02/04 01:51:38;;;;;;;6.65;3.58;;;;;;;6.55;100.00;100415.06;20764571;28;20546;-70
2022/02/04 02:01:40;;;;;;;6.22;3.50;;;;;;;6.55;100.00;100406.41;20764461;28;20144;-69
2022/02/04 02:11:43;;;;;;;8.15;3.47;;;;;;;6.48;100.00;100402.06;20768665;28;20052;-70
2022/02/04 02:42:44;;;;;;;7.80;3.85;;;;;;;6.54;100.00;100405.53;20767246;28;20049;-70
2022/02/04 03:03:08;;;;;;;9.75;5.38;;;;;;;6.46;100.00;100411.59;20761618;28;20107;-70
2022/02/04 03:13:10;;;;;;;9.68;5.40;;;;;;;6.39;100.00;100411.59;20777407;28;20061;-70
2022/02/04 03:23:12;;;;;;;10.70;6.05;;;;;;;6.38;100.00;100412.47;20774733;28;20454;-70
2022/02/04 03:33:16;;;;;;;9.77;5.47;;;;;;;6.41;100.00;100412.44;20780370;28;20076;-71
2022/02/04 03:43:17;;;;;;;9.47;5.97;;;;;;;6.32;100.00;100406.38;20771379;28;20099;-70
2022/02/04 03:53:19;;;;;;;11.57;6.55;;;;;;;6.37;100.00;100409.84;20772937;28;20619;-68
2022/02/04 04:03:20;;;;;;;12.60;6.60;;;;;;;6.23;100.00;100412.44;20778992;28;20414;-70
2022/02/04 04:13:22;;;;;;;10.75;6.63;;;;;;;6.25;100.00;100417.63;20770238;28;20072;-70
2022/02/04 04:23:24;;;;;;;12.15;6.38;;;;;;;6.30;100.00;100424.56;20774734;28;20041;-69
2022/02/04 04:33:25;;;;;;;12.48;6.75;;;;;;;6.20;100.00;100422.81;20771592;28;20056;-69
2022/02/04 05:34:50;;;;;;;13.30;7.45;;;;;;;6.23;100.00;100430.63;20760822;28;20096;-69
2022/02/04 05:45:06;;;;;;;17.48;8.82;;;;;;;6.18;100.00;100421.97;20765393;28;20499;-70
2022/02/04 05:55:26;;;;;;;12.88;7.40;;;;;;;6.22;100.00;100434.09;20769665;28;20072;-70
2022/02/04 06:05:53;;;;;;;10.50;6.13;;;;;;;6.22;100.00;100430.63;20758602;28;20049;-70
2022/02/04 06:26:12;;;;;;;8.20;4.55;;;;;;;6.22;100.00;100435.81;20771456;28;20038;-70
2022/02/04 06:36:13;;;;;;;8.98;5.15;;;;;;;6.12;100.00;100445.31;20759871;28;20104;-71
2022/02/04 06:46:15;;;;;;;7.95;4.35;;;;;;;6.10;100.00;100447.94;20775069;28;20045;-71
2022/02/04 06:56:16;;;;;;;8.60;4.45;;;;;;;6.04;100.00;100455.72;20784749;28;20099;-71
2022/02/04 07:06:19;;;;;;;12.93;4.72;;;;;;;6.00;100.00;100455.69;20777142;28;20057;-70
2022/02/04 07:26:22;;;;;;;8.20;4.68;;;;;;;6.11;100.00;100454.00;20775286;28;20720;-71
2022/02/04 07:46:44;;;;;;;10.60;6.25;;;;;;;6.32;100.00;100458.38;20777523;28;20172;-70
2022/02/04 07:56:45;;;;;;;10.32;5.85;;;;;;;6.31;100.00;100464.44;20768398;28;20073;-70
2022/02/04 08:06:52;;;;;;;10.45;5.50;;;;;;;6.30;100.00;100454.91;20745701;28;20120;-70
2022/02/04 08:17:22;;;;;;;10.48;5.38;;;;;;;6.45;100.00;100454.06;20745090;28;20557;-70
2022/02/04 08:48:11;;;;;;;8.50;4.25;;;;;;;6.88;100.00;100435.03;20730104;28;20096;-69
2022/02/04 08:58:29;;;;;;;7.50;4.07;;;;;;;6.89;100.00;100436.75;20760455;28;20491;-70
2022/02/04 09:08:33;;;;;;;9.82;5.38;;;;;;;6.93;100.00;100433.28;20763232;28;20057;-70
2022/02/04 09:18:48;;;;;;;11.48;6.50;;;;;;;7.16;100.00;100435.03;20767490;28;20084;-69
2022/02/04 09:28:49;;;;;;;11.35;6.43;;;;;;;7.15;100.00;100415.94;20764052;28;20077;-70
2022/02/04 09:38:50;;;;;;;10.70;6.28;;;;;;;7.22;100.00;100406.34;20769298;28;20049;-70
2022/02/04 09:48:57;;;;;;;9.63;5.20;;;;;;;7.61;99.59;100396.69;20761044;28;20045;-70
2022/02/04 10:30:01;;;;;;;8.45;3.80;;;;;;;7.96;94.76;100388.75;20758242;28;20042;-69
2022/02/04 10:40:25;;;;;;;7.07;3.40;;;;;;;7.93;93.83;100383.53;20767646;28;20477;-70
2022/02/04 12:02:23;;;;;;;3.57;1.60;;;;;;;7.80;86.75;100288.88;20773520;28;20080;-70
2022/02/04 12:12:56;;;;;;;1.85;0.70;;;;;;;8.10;81.98;100271.31;20772486;28;20111;-69
2022/02/04 12:23:00;;;;;;;2.30;0.88;;;;;;;8.17;78.45;100267.78;20761495;28;20045;-70
2022/02/04 12:33:03;;;;;;;3.35;1.00;;;;;;;8.23;77.64;100258.13;20767864;28;20095;-70
2022/02/04 12:43:04;;;;;;;3.47;1.50;;;;;;;8.21;79.32;100246.88;20770921;28;20483;-69
2022/02/04 12:53:08;;;;;;;2.15;0.90;;;;;;;8.24;76.91;100217.31;20763685;28;20112;-69
2022/02/04 13:03:20;;;;;;;2.47;1.05;;;;;;;8.42;77.04;100211.06;20769953;28;20430;-70
2022/02/04 13:13:21;;;;;;;3.90;1.02;;;;;;;8.31;75.35;100182.44;20761537;28;20080;-70
2022/02/04 13:23:27;;;;;;;1.50;0.80;;;;;;;8.15;75.56;100175.66;20764366;28;20100;-69
2022/02/04 13:33:42;;;;;;;2.60;1.10;;;;;;;8.22;75.74;100164.28;20769646;28;20077;-69
2022/02/04 13:44:04;;;;;;;4.13;1.90;;;;;;;8.16;74.83;100135.66;20760493;28;20046;-70
2022/02/04 14:04:31;;;;;;;2.70;1.02;;;;;;;8.20;74.70;100100.84;20753695;28;20491;-70
2022/02/04 14:14:32;;;;;;;1.35;0.55;;;;;;;8.17;74.73;100074.78;20759338;28;20057;-69
2022/02/04 14:24:35;;;;;;;3.70;0.80;;;;;;;8.27;75.13;100073.78;20764057;28;20045;-70
2022/02/04 15:05:38;;;;;;;1.80;0.63;;;;;;;8.29;75.06;100051.19;20769157;28;20057;-70
2022/02/04 15:15:51;;;;;;;1.42;0.57;;;;;;;8.30;75.26;100031.19;20770856;28;20050;-69
2022/02/04 15:25:55;;;;;;;1.10;0.43;;;;;;;8.36;74.51;100016.34;20779359;28;20673;-70
2022/02/04 15:35:57;;;;;;;3.20;0.83;;;;;;;8.41;76.17;100017.13;20771983;28;20081;-70
2022/02/04 15:46:36;;;;;;;3.72;0.93;;;;;;;8.32;76.29;100017.22;20771022;28;20046;-70
2022/02/04 16:06:50;;;;;;;3.13;0.93;;;;;;;8.19;77.34;100028.69;20766545;28;20713;-70
2022/02/04 16:17:00;;;;;;;4.55;2.00;;;;;;;8.21;77.72;100024.31;20769635;28;20057;-70
2022/02/04 16:37:26;;;;;;;3.28;1.45;;;;;;;7.82;90.27;100051.72;20765899;28;20100;-71
2022/02/04 16:47:28;;;;;;;4.68;1.30;;;;;;;7.49;93.76;100063.31;20764122;28;20465;-70
2022/02/04 16:57:29;;;;;;;4.63;1.60;;;;;;;7.36;97.59;100052.97;20771809;28;20049;-71
2022/02/04 17:07:35;;;;;;;3.03;1.40;;;;;;;7.23;98.86;100081.72;20743685;28;20502;-71
2022/02/04 17:17:37;;;;;;;6.82;1.90;;;;;;;7.07;99.20;100066.22;20757239;28;21832;-70
2022/02/04 17:27:41;;;;;;;5.88;1.70;;;;;;;7.15;99.61;100079.19;20766351;28;20459;-70
2022/02/04 17:37:43;;;;;;;5.10;1.63;;;;;;;7.13;98.75;100054.88;20750088;28;20078;-70
2022/02/04 17:47:53;;;;;;;5.68;1.90;;;;;;;6.98;98.98;100075.81;20772695;28;20056;-70
2022/02/04 17:58:10;;;;;;;4.85;1.50;;;;;;;7.08;98.10;100095.72;20759264;28;20495;-70
2022/02/04 18:08:12;;;;;;;5.53;1.85;;;;;;;7.14;96.87;100093.09;20758931;28;20042;-70
2022/02/04 18:18:15;;;;;;;4.07;1.58;;;;;;;7.17;97.39;100091.31;20767018;28;20080;-70
2022/02/04 18:28:18;;;;;;;3.60;1.50;;;;;;;7.28;96.46;100095.56;20755427;28;20046;-70
2022/02/04 18:38:29;;;;;;;3.58;1.60;;;;;;;7.29;96.59;100103.41;20770484;28;20053;-70
2022/02/04 18:48:42;;;;;;;4.13;1.90;;;;;;;7.32;97.13;100092.94;20782561;28;20064;-70
2022/02/04 18:58:45;;;;;;;5.78;2.30;;;;;;;7.24;98.82;100094.75;20773018;28;20108;-70
2022/02/04 19:08:55;;;;;;;3.60;1.63;;;;;;;7.21;99.29;100092.16;20781143;28;20064;-71
2022/02/04 19:19:07;;;;;;;5.55;2.20;;;;;;;7.20;99.09;100098.25;20772976;28;20080;-70
2022/02/04 19:29:09;;;;;;;7.03;1.67;;;;;;;7.26;99.23;100077.38;20772139;28;20053;-70
2022/02/04 19:39:11;;;;;;;4.75;2.05;;;;;;;7.31;98.70;100087.75;20780586;28;20049;-70
2022/02/04 19:49:18;;;;;;;4.53;2.30;;;;;;;7.34;97.60;100096.41;20767715;28;20069;-70
2022/02/04 20:30:20;;;;;;;4.72;1.63;;;;;;;7.34;100.00;100197.97;20767078;28;20038;-71
2022/02/04 20:40:28;;;;;;;2.47;1.10;;;;;;;7.30;100.00;100258.78;20771544;28;20049;-71
2022/02/04 20:50:30;;;;;;;1.75;0.73;;;;;;;6.98;100.00;100273.66;20760579;28;20049;-71
2022/02/04 21:00:32;;;;;;;1.75;0.88;;;;;;;6.79;100.00;100304.91;20770588;28;20050;-71
2022/02/04 21:20:55;;;;;;;1.65;0.80;;;;;;;6.49;100.00;100372.59;20761693;28;20399;-71
2022/02/04 21:30:59;;;;;;;1.70;0.70;;;;;;;6.42;95.60;100411.59;20773172;28;20053;-71
2022/02/04 21:41:00;;;;;;;2.58;0.80;;;;;;;6.12;93.67;100451.38;20759268;28;20088;-71
2022/02/04 21:51:02;;;;;;;1.05;0.60;;;;;;;5.95;86.96;100483.41;20764909;28;20545;-71
2022/02/04 22:01:03;;;;;;;0.95;0.50;;;;;;;5.77;84.21;100516.19;20764451;28;20049;-71
2022/02/04 22:31:28;;;;;;;4.88;1.10;;;;;;;5.00;78.55;100607.31;20759139;28;20064;-71
2022/02/04 22:42:16;;;;;;;2.75;0.80;;;;;;;4.62;78.86;100639.75;20761038;28;20045;-70
2022/02/04 22:52:00;;;;;;;3.63;1.00;;;;;;;4.34;78.49;100660.97;20763627;28;20054;-70
2022/02/04 23:02:02;;;;;;;4.40;1.00;;;;;;;4.12;81.45;100685.75;20759497;28;20042;-70
2022/02/04 23:12:05;;;;;;;7.22;1.20;;;;;;;4.01;79.57;100692.44;20759538;28;20549;-70
2022/02/04 23:22:11;;;;;;;4.97;0.80;;;;;;;3.85;77.59;100717.25;20762786;28;20195;-69
2022/02/04 23:52:53;;;;;;;5.40;2.45;;;;;;;3.42;80.02;100747.56;20781233;28;20662;-72
